sensor_id;sensor_type;location;lat;lon;timestamp;P1;durP1;ratioP1;P2;durP2;ratioP2
50225;SDS011;36113;50.742;6.432;2023-12-20T00:00:39;3.60;;;3.30;;
50225;SDS011;36113;50.742;6.432;2023-12-20T00:03:04;3.45;;;3.22;;
50225;SDS011;36113;50.742;6.432;2023-12-20T00:05:30;3.95;;;3.65;;
50225;SDS011;36113;50.742;6.432;2023-12-20T00:07:58;3.35;;;3.15;;
50225;SDS011;36113;50.742;6.432;2023-12-20T00:10:23;3.97;;;3.42;;
50225;SDS011;36113;50.742;6.432;2023-12-20T00:12:49;4.03;;;3.63;;
50225;SDS011;36113;50.742;6.432;2023-12-20T00:15:14;5.45;;;4.95;;
50225;SDS011;36113;50.742;6.432;2023-12-20T00:17:39;5.75;;;5.13;;
50225;SDS011;36113;50.742;6.432;2023-12-20T00:20:05;6.50;;;5.90;;
50225;SDS011;36113;50.742;6.432;2023-12-20T00:22:31;7.88;;;6.72;;
50225;SDS011;36113;50.742;6.432;2023-12-20T00:24:56;7.78;;;6.93;;
50225;SDS011;36113;50.742;6.432;2023-12-20T00:27:22;7.55;;;6.82;;
50225;SDS011;36113;50.742;6.432;2023-12-20T00:29:48;7.53;;;6.43;;
50225;SDS011;36113;50.742;6.432;2023-12-20T00:32:15;8.40;;;6.72;;
50225;SDS011;36113;50.742;6.432;2023-12-20T00:34:40;7.10;;;6.03;;
50225;SDS011;36113;50.742;6.432;2023-12-20T00:37:06;7.43;;;6.75;;
50225;SDS011;36113;50.742;6.432;2023-12-20T00:39:31;8.95;;;7.88;;
50225;SDS011;36113;50.742;6.432;2023-12-20T00:41:58;8.73;;;7.20;;
50225;SDS011;36113;50.742;6.432;2023-12-20T00:44:23;9.02;;;8.15;;
50225;SDS011;36113;50.742;6.432;2023-12-20T00:46:49;10.38;;;8.52;;
50225;SDS011;36113;50.742;6.432;2023-12-20T00:49:14;12.68;;;8.85;;
50225;SDS011;36113;50.742;6.432;2023-12-20T00:51:39;12.48;;;10.23;;
50225;SDS011;36113;50.742;6.432;2023-12-20T00:54:05;13.07;;;10.82;;
50225;SDS011;36113;50.742;6.432;2023-12-20T00:56:30;14.75;;;11.13;;
50225;SDS011;36113;50.742;6.432;2023-12-20T00:58:55;13.40;;;10.85;;
50225;SDS011;36113;50.742;6.432;2023-12-20T01:01:21;13.98;;;9.60;;
50225;SDS011;36113;50.742;6.432;2023-12-20T01:03:46;16.60;;;10.63;;
50225;SDS011;36113;50.742;6.432;2023-12-20T01:06:12;13.57;;;9.75;;
50225;SDS011;36113;50.742;6.432;2023-12-20T01:08:37;13.50;;;10.35;;
50225;SDS011;36113;50.742;6.432;2023-12-20T01:11:05;17.95;;;10.73;;
50225;SDS011;36113;50.742;6.432;2023-12-20T01:13:31;12.13;;;9.90;;
50225;SDS011;36113;50.742;6.432;2023-12-20T01:15:56;10.45;;;9.23;;
50225;SDS011;36113;50.742;6.432;2023-12-20T01:18:21;13.65;;;9.23;;
50225;SDS011;36113;50.742;6.432;2023-12-20T01:20:47;8.65;;;7.57;;
50225;SDS011;36113;50.742;6.432;2023-12-20T01:23:12;12.05;;;7.00;;
50225;SDS011;36113;50.742;6.432;2023-12-20T01:25:37;15.98;;;6.47;;
50225;SDS011;36113;50.742;6.432;2023-12-20T01:28:03;8.95;;;5.85;;
50225;SDS011;36113;50.742;6.432;2023-12-20T01:30:28;9.10;;;6.57;;
50225;SDS011;36113;50.742;6.432;2023-12-20T01:32:53;11.32;;;6.15;;
50225;SDS011;36113;50.742;6.432;2023-12-20T01:35:19;14.00;;;6.05;;
50225;SDS011;36113;50.742;6.432;2023-12-20T01:37:44;10.35;;;6.50;;
50225;SDS011;36113;50.742;6.432;2023-12-20T01:40:10;10.70;;;5.97;;
50225;SDS011;36113;50.742;6.432;2023-12-20T01:42:35;12.85;;;6.35;;
50225;SDS011;36113;50.742;6.432;2023-12-20T01:45:01;10.50;;;6.15;;
50225;SDS011;36113;50.742;6.432;2023-12-20T01:47:27;7.70;;;4.93;;
50225;SDS011;36113;50.742;6.432;2023-12-20T01:49:53;9.98;;;4.47;;
50225;SDS011;36113;50.742;6.432;2023-12-20T01:52:19;7.07;;;3.58;;
50225;SDS011;36113;50.742;6.432;2023-12-20T01:54:45;11.15;;;3.85;;
50225;SDS011;36113;50.742;6.432;2023-12-20T01:57:12;11.52;;;4.43;;
50225;SDS011;36113;50.742;6.432;2023-12-20T01:59:39;7.78;;;3.55;;
50225;SDS011;36113;50.742;6.432;2023-12-20T02:02:05;9.50;;;4.63;;
50225;SDS011;36113;50.742;6.432;2023-12-20T02:04:30;6.88;;;3.78;;
50225;SDS011;36113;50.742;6.432;2023-12-20T02:06:56;11.77;;;4.05;;
50225;SDS011;36113;50.742;6.432;2023-12-20T02:09:23;9.40;;;3.47;;
50225;SDS011;36113;50.742;6.432;2023-12-20T02:11:49;7.07;;;3.75;;
50225;SDS011;36113;50.742;6.432;2023-12-20T02:14:15;12.10;;;4.18;;
50225;SDS011;36113;50.742;6.432;2023-12-20T02:16:40;8.30;;;3.38;;
50225;SDS011;36113;50.742;6.432;2023-12-20T02:19:07;8.35;;;3.90;;
50225;SDS011;36113;50.742;6.432;2023-12-20T02:21:39;10.52;;;3.67;;
50225;SDS011;36113;50.742;6.432;2023-12-20T02:24:05;9.45;;;3.83;;
50225;SDS011;36113;50.742;6.432;2023-12-20T02:26:31;8.10;;;4.07;;
50225;SDS011;36113;50.742;6.432;2023-12-20T02:28:58;11.30;;;3.58;;
50225;SDS011;36113;50.742;6.432;2023-12-20T02:31:24;13.20;;;4.07;;
50225;SDS011;36113;50.742;6.432;2023-12-20T02:33:49;10.63;;;3.70;;
50225;SDS011;36113;50.742;6.432;2023-12-20T02:36:14;9.68;;;3.45;;
50225;SDS011;36113;50.742;6.432;2023-12-20T02:38:40;16.25;;;3.45;;
50225;SDS011;36113;50.742;6.432;2023-12-20T02:41:05;11.48;;;3.10;;
50225;SDS011;36113;50.742;6.432;2023-12-20T02:43:30;17.15;;;3.80;;
50225;SDS011;36113;50.742;6.432;2023-12-20T02:45:55;15.00;;;3.58;;
50225;SDS011;36113;50.742;6.432;2023-12-20T02:48:21;6.43;;;3.08;;
50225;SDS011;36113;50.742;6.432;2023-12-20T02:50:46;7.15;;;3.20;;
50225;SDS011;36113;50.742;6.432;2023-12-20T02:53:13;14.50;;;3.83;;
50225;SDS011;36113;50.742;6.432;2023-12-20T02:55:39;12.52;;;4.55;;
50225;SDS011;36113;50.742;6.432;2023-12-20T02:58:04;9.48;;;4.22;;
50225;SDS011;36113;50.742;6.432;2023-12-20T03:00:29;10.55;;;4.50;;
50225;SDS011;36113;50.742;6.432;2023-12-20T03:02:55;8.95;;;4.40;;
50225;SDS011;36113;50.742;6.432;2023-12-20T03:05:20;14.48;;;4.93;;
50225;SDS011;36113;50.742;6.432;2023-12-20T03:07:45;10.48;;;5.00;;
50225;SDS011;36113;50.742;6.432;2023-12-20T03:10:11;13.98;;;5.50;;
50225;SDS011;36113;50.742;6.432;2023-12-20T03:12:36;14.57;;;4.50;;
50225;SDS011;36113;50.742;6.432;2023-12-20T03:15:01;12.45;;;4.82;;
50225;SDS011;36113;50.742;6.432;2023-12-20T03:17:27;13.13;;;5.63;;
50225;SDS011;36113;50.742;6.432;2023-12-20T03:19:52;13.18;;;4.43;;
50225;SDS011;36113;50.742;6.432;2023-12-20T03:22:18;11.40;;;4.35;;
50225;SDS011;36113;50.742;6.432;2023-12-20T03:24:43;12.30;;;5.07;;
50225;SDS011;36113;50.742;6.432;2023-12-20T03:27:08;14.32;;;5.45;;
50225;SDS011;36113;50.742;6.432;2023-12-20T03:29:33;12.05;;;5.10;;
50225;SDS011;36113;50.742;6.432;2023-12-20T03:31:59;11.00;;;4.90;;
50225;SDS011;36113;50.742;6.432;2023-12-20T03:34:24;11.73;;;5.13;;
50225;SDS011;36113;50.742;6.432;2023-12-20T03:36:49;12.20;;;5.15;;
50225;SDS011;36113;50.742;6.432;2023-12-20T03:39:14;10.40;;;5.13;;
50225;SDS011;36113;50.742;6.432;2023-12-20T03:41:40;15.60;;;5.28;;
50225;SDS011;36113;50.742;6.432;2023-12-20T03:44:05;14.20;;;5.30;;
50225;SDS011;36113;50.742;6.432;2023-12-20T03:46:30;15.68;;;5.25;;
50225;SDS011;36113;50.742;6.432;2023-12-20T03:48:56;9.07;;;5.43;;
50225;SDS011;36113;50.742;6.432;2023-12-20T03:51:22;14.95;;;4.55;;
50225;SDS011;36113;50.742;6.432;2023-12-20T03:53:47;10.27;;;4.80;;
50225;SDS011;36113;50.742;6.432;2023-12-20T03:56:12;15.85;;;5.25;;
50225;SDS011;36113;50.742;6.432;2023-12-20T03:58:38;10.00;;;4.22;;
50225;SDS011;36113;50.742;6.432;2023-12-20T04:01:03;11.00;;;4.68;;
50225;SDS011;36113;50.742;6.432;2023-12-20T04:03:33;9.55;;;4.45;;
50225;SDS011;36113;50.742;6.432;2023-12-20T04:05:59;19.33;;;5.55;;
50225;SDS011;36113;50.742;6.432;2023-12-20T04:08:24;9.68;;;4.50;;
50225;SDS011;36113;50.742;6.432;2023-12-20T04:10:49;10.98;;;4.85;;
50225;SDS011;36113;50.742;6.432;2023-12-20T04:13:14;12.38;;;4.88;;
50225;SDS011;36113;50.742;6.432;2023-12-20T04:15:40;12.90;;;5.85;;
50225;SDS011;36113;50.742;6.432;2023-12-20T04:18:05;15.20;;;5.15;;
50225;SDS011;36113;50.742;6.432;2023-12-20T04:20:31;15.02;;;5.20;;
50225;SDS011;36113;50.742;6.432;2023-12-20T04:22:56;15.30;;;5.88;;
50225;SDS011;36113;50.742;6.432;2023-12-20T04:25:21;11.90;;;5.63;;
50225;SDS011;36113;50.742;6.432;2023-12-20T04:27:46;10.20;;;5.25;;
50225;SDS011;36113;50.742;6.432;2023-12-20T04:30:12;11.23;;;4.50;;
50225;SDS011;36113;50.742;6.432;2023-12-20T04:32:38;17.42;;;4.78;;
50225;SDS011;36113;50.742;6.432;2023-12-20T04:35:03;16.83;;;5.45;;
50225;SDS011;36113;50.742;6.432;2023-12-20T04:37:29;14.50;;;5.45;;
50225;SDS011;36113;50.742;6.432;2023-12-20T04:39:54;11.63;;;5.18;;
50225;SDS011;36113;50.742;6.432;2023-12-20T04:42:20;15.57;;;5.35;;
50225;SDS011;36113;50.742;6.432;2023-12-20T04:44:45;15.90;;;5.60;;
50225;SDS011;36113;50.742;6.432;2023-12-20T04:47:10;16.05;;;5.88;;
50225;SDS011;36113;50.742;6.432;2023-12-20T04:49:36;11.70;;;5.38;;
50225;SDS011;36113;50.742;6.432;2023-12-20T04:52:01;12.30;;;5.30;;
50225;SDS011;36113;50.742;6.432;2023-12-20T04:54:26;13.63;;;6.10;;
50225;SDS011;36113;50.742;6.432;2023-12-20T04:56:52;10.35;;;5.10;;
50225;SDS011;36113;50.742;6.432;2023-12-20T04:59:17;10.10;;;5.70;;
50225;SDS011;36113;50.742;6.432;2023-12-20T05:01:42;14.90;;;5.22;;
50225;SDS011;36113;50.742;6.432;2023-12-20T05:04:07;13.38;;;5.57;;
50225;SDS011;36113;50.742;6.432;2023-12-20T05:06:33;13.98;;;5.05;;
50225;SDS011;36113;50.742;6.432;2023-12-20T05:08:58;16.88;;;5.00;;
50225;SDS011;36113;50.742;6.432;2023-12-20T05:11:24;18.30;;;4.68;;
50225;SDS011;36113;50.742;6.432;2023-12-20T05:13:49;13.75;;;3.85;;
50225;SDS011;36113;50.742;6.432;2023-12-20T05:16:14;11.95;;;4.38;;
50225;SDS011;36113;50.742;6.432;2023-12-20T05:18:42;16.25;;;4.70;;
50225;SDS011;36113;50.742;6.432;2023-12-20T05:21:08;8.38;;;3.95;;
50225;SDS011;36113;50.742;6.432;2023-12-20T05:23:33;10.40;;;4.63;;
50225;SDS011;36113;50.742;6.432;2023-12-20T05:25:58;14.48;;;4.57;;
50225;SDS011;36113;50.742;6.432;2023-12-20T05:28:24;9.27;;;4.60;;
50225;SDS011;36113;50.742;6.432;2023-12-20T05:30:49;11.60;;;5.35;;
50225;SDS011;36113;50.742;6.432;2023-12-20T05:33:15;7.85;;;4.45;;
50225;SDS011;36113;50.742;6.432;2023-12-20T05:35:40;19.05;;;6.75;;
50225;SDS011;36113;50.742;6.432;2023-12-20T05:38:05;19.30;;;6.28;;
50225;SDS011;36113;50.742;6.432;2023-12-20T05:40:31;17.02;;;5.43;;
50225;SDS011;36113;50.742;6.432;2023-12-20T05:42:56;13.52;;;6.22;;
50225;SDS011;36113;50.742;6.432;2023-12-20T05:45:21;15.48;;;5.57;;
50225;SDS011;36113;50.742;6.432;2023-12-20T05:47:46;17.35;;;5.70;;
50225;SDS011;36113;50.742;6.432;2023-12-20T05:50:12;14.93;;;6.22;;
50225;SDS011;36113;50.742;6.432;2023-12-20T05:52:37;20.50;;;6.43;;
50225;SDS011;36113;50.742;6.432;2023-12-20T05:55:02;17.35;;;5.07;;
50225;SDS011;36113;50.742;6.432;2023-12-20T05:57:28;19.17;;;5.88;;
50225;SDS011;36113;50.742;6.432;2023-12-20T05:59:53;10.80;;;5.72;;
50225;SDS011;36113;50.742;6.432;2023-12-20T06:02:18;17.60;;;5.65;;
50225;SDS011;36113;50.742;6.432;2023-12-20T06:04:44;21.65;;;6.55;;
50225;SDS011;36113;50.742;6.432;2023-12-20T06:07:12;17.98;;;5.38;;
50225;SDS011;36113;50.742;6.432;2023-12-20T06:09:38;16.35;;;4.85;;
50225;SDS011;36113;50.742;6.432;2023-12-20T06:12:04;15.73;;;4.47;;
50225;SDS011;36113;50.742;6.432;2023-12-20T06:14:29;11.48;;;5.32;;
50225;SDS011;36113;50.742;6.432;2023-12-20T06:16:55;15.97;;;4.63;;
50225;SDS011;36113;50.742;6.432;2023-12-20T06:19:21;16.45;;;4.93;;
50225;SDS011;36113;50.742;6.432;2023-12-20T06:21:46;15.75;;;5.40;;
50225;SDS011;36113;50.742;6.432;2023-12-20T06:24:12;20.00;;;5.50;;
50225;SDS011;36113;50.742;6.432;2023-12-20T06:26:37;11.95;;;4.93;;
50225;SDS011;36113;50.742;6.432;2023-12-20T06:29:03;15.32;;;5.53;;
50225;SDS011;36113;50.742;6.432;2023-12-20T06:31:28;17.02;;;5.05;;
50225;SDS011;36113;50.742;6.432;2023-12-20T06:33:54;14.32;;;6.25;;
50225;SDS011;36113;50.742;6.432;2023-12-20T06:36:24;18.85;;;5.75;;
50225;SDS011;36113;50.742;6.432;2023-12-20T06:38:50;18.00;;;6.03;;
50225;SDS011;36113;50.742;6.432;2023-12-20T06:41:15;17.40;;;5.57;;
50225;SDS011;36113;50.742;6.432;2023-12-20T06:43:41;17.15;;;5.45;;
50225;SDS011;36113;50.742;6.432;2023-12-20T06:46:07;19.27;;;5.97;;
50225;SDS011;36113;50.742;6.432;2023-12-20T06:48:32;17.13;;;5.22;;
50225;SDS011;36113;50.742;6.432;2023-12-20T06:50:59;12.52;;;5.72;;
50225;SDS011;36113;50.742;6.432;2023-12-20T06:53:25;15.43;;;6.03;;
50225;SDS011;36113;50.742;6.432;2023-12-20T06:55:50;20.95;;;6.30;;
50225;SDS011;36113;50.742;6.432;2023-12-20T06:58:16;10.82;;;5.00;;
50225;SDS011;36113;50.742;6.432;2023-12-20T07:00:41;12.70;;;4.90;;
50225;SDS011;36113;50.742;6.432;2023-12-20T07:03:06;14.68;;;5.60;;
50225;SDS011;36113;50.742;6.432;2023-12-20T07:05:32;23.85;;;6.88;;
50225;SDS011;36113;50.742;6.432;2023-12-20T07:07:58;17.75;;;7.38;;
50225;SDS011;36113;50.742;6.432;2023-12-20T07:10:23;16.85;;;6.43;;
50225;SDS011;36113;50.742;6.432;2023-12-20T07:12:49;9.85;;;5.20;;
50225;SDS011;36113;50.742;6.432;2023-12-20T07:15:14;13.18;;;5.82;;
50225;SDS011;36113;50.742;6.432;2023-12-20T07:17:39;16.23;;;5.03;;
50225;SDS011;36113;50.742;6.432;2023-12-20T07:20:05;11.23;;;5.35;;
50225;SDS011;36113;50.742;6.432;2023-12-20T07:22:34;12.68;;;5.43;;
50225;SDS011;36113;50.742;6.432;2023-12-20T07:25:00;16.55;;;5.95;;
50225;SDS011;36113;50.742;6.432;2023-12-20T07:27:25;16.42;;;5.80;;
50225;SDS011;36113;50.742;6.432;2023-12-20T07:29:51;16.73;;;6.15;;
50225;SDS011;36113;50.742;6.432;2023-12-20T07:32:16;12.18;;;5.13;;
50225;SDS011;36113;50.742;6.432;2023-12-20T07:34:42;10.00;;;4.68;;
50225;SDS011;36113;50.742;6.432;2023-12-20T07:37:07;14.23;;;6.38;;
50225;SDS011;36113;50.742;6.432;2023-12-20T07:39:35;12.20;;;5.22;;
50225;SDS011;36113;50.742;6.432;2023-12-20T07:42:00;19.67;;;7.13;;
50225;SDS011;36113;50.742;6.432;2023-12-20T07:44:26;15.05;;;6.30;;
50225;SDS011;36113;50.742;6.432;2023-12-20T07:46:51;12.57;;;5.90;;
50225;SDS011;36113;50.742;6.432;2023-12-20T07:49:16;21.35;;;6.63;;
50225;SDS011;36113;50.742;6.432;2023-12-20T07:51:42;20.20;;;5.93;;
50225;SDS011;36113;50.742;6.432;2023-12-20T07:54:07;13.98;;;6.40;;
50225;SDS011;36113;50.742;6.432;2023-12-20T07:56:33;11.73;;;4.93;;
50225;SDS011;36113;50.742;6.432;2023-12-20T07:58:58;18.63;;;6.68;;
50225;SDS011;36113;50.742;6.432;2023-12-20T08:01:24;10.45;;;5.53;;
50225;SDS011;36113;50.742;6.432;2023-12-20T08:03:49;14.25;;;6.68;;
50225;SDS011;36113;50.742;6.432;2023-12-20T08:06:15;19.00;;;6.30;;
50225;SDS011;36113;50.742;6.432;2023-12-20T08:08:42;13.30;;;6.82;;
50225;SDS011;36113;50.742;6.432;2023-12-20T08:11:07;12.75;;;5.47;;
50225;SDS011;36113;50.742;6.432;2023-12-20T08:13:32;12.15;;;5.45;;
50225;SDS011;36113;50.742;6.432;2023-12-20T08:15:58;16.42;;;5.93;;
50225;SDS011;36113;50.742;6.432;2023-12-20T08:18:23;16.33;;;5.60;;
50225;SDS011;36113;50.742;6.432;2023-12-20T08:20:48;14.15;;;5.75;;
50225;SDS011;36113;50.742;6.432;2023-12-20T08:23:15;10.68;;;6.20;;
50225;SDS011;36113;50.742;6.432;2023-12-20T08:25:40;12.82;;;6.07;;
50225;SDS011;36113;50.742;6.432;2023-12-20T08:28:06;13.40;;;5.60;;
50225;SDS011;36113;50.742;6.432;2023-12-20T08:30:31;14.13;;;5.07;;
50225;SDS011;36113;50.742;6.432;2023-12-20T08:32:59;14.07;;;6.23;;
50225;SDS011;36113;50.742;6.432;2023-12-20T08:35:25;11.98;;;5.03;;
50225;SDS011;36113;50.742;6.432;2023-12-20T08:37:50;15.27;;;5.65;;
50225;SDS011;36113;50.742;6.432;2023-12-20T08:40:16;11.55;;;5.53;;
50225;SDS011;36113;50.742;6.432;2023-12-20T08:42:41;12.27;;;6.85;;
50225;SDS011;36113;50.742;6.432;2023-12-20T08:45:06;14.50;;;5.45;;
50225;SDS011;36113;50.742;6.432;2023-12-20T08:47:32;15.23;;;6.25;;
50225;SDS011;36113;50.742;6.432;2023-12-20T08:49:57;19.15;;;6.65;;
50225;SDS011;36113;50.742;6.432;2023-12-20T08:52:24;15.82;;;5.18;;
50225;SDS011;36113;50.742;6.432;2023-12-20T08:54:52;13.63;;;5.22;;
50225;SDS011;36113;50.742;6.432;2023-12-20T08:57:21;19.93;;;6.63;;
50225;SDS011;36113;50.742;6.432;2023-12-20T08:59:48;13.68;;;5.78;;
50225;SDS011;36113;50.742;6.432;2023-12-20T09:02:17;12.30;;;5.38;;
50225;SDS011;36113;50.742;6.432;2023-12-20T09:04:43;15.27;;;6.00;;
50225;SDS011;36113;50.742;6.432;2023-12-20T09:07:24;13.02;;;5.90;;
50225;SDS011;36113;50.742;6.432;2023-12-20T09:09:50;14.63;;;5.85;;
50225;SDS011;36113;50.742;6.432;2023-12-20T09:12:17;13.90;;;6.05;;
50225;SDS011;36113;50.742;6.432;2023-12-20T09:14:43;10.18;;;5.13;;
50225;SDS011;36113;50.742;6.432;2023-12-20T09:17:09;8.30;;;4.25;;
50225;SDS011;36113;50.742;6.432;2023-12-20T09:19:36;13.77;;;5.28;;
50225;SDS011;36113;50.742;6.432;2023-12-20T09:22:01;11.18;;;4.78;;
50225;SDS011;36113;50.742;6.432;2023-12-20T09:24:27;13.68;;;5.45;;
50225;SDS011;36113;50.742;6.432;2023-12-20T09:26:52;16.17;;;4.68;;
50225;SDS011;36113;50.742;6.432;2023-12-20T09:29:17;13.45;;;4.82;;
50225;SDS011;36113;50.742;6.432;2023-12-20T09:31:44;17.23;;;6.07;;
50225;SDS011;36113;50.742;6.432;2023-12-20T09:34:11;15.02;;;4.88;;
50225;SDS011;36113;50.742;6.432;2023-12-20T09:36:36;10.10;;;4.60;;
50225;SDS011;36113;50.742;6.432;2023-12-20T09:39:03;17.30;;;5.18;;
50225;SDS011;36113;50.742;6.432;2023-12-20T09:41:30;10.23;;;4.40;;
50225;SDS011;36113;50.742;6.432;2023-12-20T09:43:58;13.75;;;4.45;;
50225;SDS011;36113;50.742;6.432;2023-12-20T09:46:27;11.30;;;4.68;;
50225;SDS011;36113;50.742;6.432;2023-12-20T09:48:54;16.38;;;5.68;;
50225;SDS011;36113;50.742;6.432;2023-12-20T09:51:20;14.40;;;4.70;;
50225;SDS011;36113;50.742;6.432;2023-12-20T09:53:46;10.98;;;3.88;;
50225;SDS011;36113;50.742;6.432;2023-12-20T09:56:13;10.57;;;4.60;;
50225;SDS011;36113;50.742;6.432;2023-12-20T09:58:39;16.03;;;5.27;;
50225;SDS011;36113;50.742;6.432;2023-12-20T10:01:05;14.27;;;4.57;;
50225;SDS011;36113;50.742;6.432;2023-12-20T10:03:31;14.18;;;5.60;;
50225;SDS011;36113;50.742;6.432;2023-12-20T10:05:57;10.68;;;4.78;;
50225;SDS011;36113;50.742;6.432;2023-12-20T10:08:24;19.35;;;6.10;;
50225;SDS011;36113;50.742;6.432;2023-12-20T10:10:50;9.02;;;5.43;;
50225;SDS011;36113;50.742;6.432;2023-12-20T10:13:16;15.93;;;5.55;;
50225;SDS011;36113;50.742;6.432;2023-12-20T10:15:42;17.67;;;5.75;;
50225;SDS011;36113;50.742;6.432;2023-12-20T10:18:07;16.23;;;4.75;;
50225;SDS011;36113;50.742;6.432;2023-12-20T10:20:33;13.25;;;4.93;;
50225;SDS011;36113;50.742;6.432;2023-12-20T10:22:59;11.35;;;5.65;;
50225;SDS011;36113;50.742;6.432;2023-12-20T10:25:25;8.77;;;4.72;;
50225;SDS011;36113;50.742;6.432;2023-12-20T10:28:08;11.77;;;4.95;;
50225;SDS011;36113;50.742;6.432;2023-12-20T10:30:35;12.30;;;4.60;;
50225;SDS011;36113;50.742;6.432;2023-12-20T10:33:00;12.20;;;5.63;;
50225;SDS011;36113;50.742;6.432;2023-12-20T10:35:26;14.02;;;4.70;;
50225;SDS011;36113;50.742;6.432;2023-12-20T10:37:52;8.88;;;4.20;;
50225;SDS011;36113;50.742;6.432;2023-12-20T10:40:21;8.77;;;4.50;;
50225;SDS011;36113;50.742;6.432;2023-12-20T10:42:47;16.88;;;4.85;;
50225;SDS011;36113;50.742;6.432;2023-12-20T10:45:15;11.15;;;5.00;;
50225;SDS011;36113;50.742;6.432;2023-12-20T10:47:42;12.95;;;5.65;;
50225;SDS011;36113;50.742;6.432;2023-12-20T10:50:11;14.10;;;4.85;;
50225;SDS011;36113;50.742;6.432;2023-12-20T10:52:36;14.32;;;4.85;;
50225;SDS011;36113;50.742;6.432;2023-12-20T10:55:02;8.15;;;3.95;;
50225;SDS011;36113;50.742;6.432;2023-12-20T10:57:28;8.68;;;4.40;;
50225;SDS011;36113;50.742;6.432;2023-12-20T10:59:54;9.95;;;4.75;;
50225;SDS011;36113;50.742;6.432;2023-12-20T11:02:25;11.90;;;5.43;;
50225;SDS011;36113;50.742;6.432;2023-12-20T11:04:58;14.77;;;4.63;;
50225;SDS011;36113;50.742;6.432;2023-12-20T11:07:41;10.45;;;4.18;;
50225;SDS011;36113;50.742;6.432;2023-12-20T11:12:47;10.57;;;4.70;;
50225;SDS011;36113;50.742;6.432;2023-12-20T11:15:15;10.65;;;4.55;;
50225;SDS011;36113;50.742;6.432;2023-12-20T11:17:44;8.80;;;4.47;;
50225;SDS011;36113;50.742;6.432;2023-12-20T11:20:11;10.05;;;4.68;;
50225;SDS011;36113;50.742;6.432;2023-12-20T11:22:37;10.35;;;4.60;;
50225;SDS011;36113;50.742;6.432;2023-12-20T11:25:10;13.32;;;4.57;;
50225;SDS011;36113;50.742;6.432;2023-12-20T11:27:36;9.95;;;4.15;;
50225;SDS011;36113;50.742;6.432;2023-12-20T11:30:05;14.85;;;4.43;;
50225;SDS011;36113;50.742;6.432;2023-12-20T11:32:33;15.07;;;4.78;;
50225;SDS011;36113;50.742;6.432;2023-12-20T11:35:20;9.80;;;4.32;;
50225;SDS011;36113;50.742;6.432;2023-12-20T11:37:45;8.80;;;4.30;;
50225;SDS011;36113;50.742;6.432;2023-12-20T11:40:17;15.05;;;4.63;;
50225;SDS011;36113;50.742;6.432;2023-12-20T11:42:49;13.73;;;4.38;;
50225;SDS011;36113;50.742;6.432;2023-12-20T11:45:16;13.07;;;4.35;;
50225;SDS011;36113;50.742;6.432;2023-12-20T11:47:46;9.90;;;4.35;;
50225;SDS011;36113;50.742;6.432;2023-12-20T11:50:14;9.32;;;4.00;;
50225;SDS011;36113;50.742;6.432;2023-12-20T11:52:40;13.00;;;5.40;;
50225;SDS011;36113;50.742;6.432;2023-12-20T11:55:06;15.00;;;4.38;;
50225;SDS011;36113;50.742;6.432;2023-12-20T11:57:32;7.72;;;4.25;;
50225;SDS011;36113;50.742;6.432;2023-12-20T11:59:58;9.52;;;3.97;;
50225;SDS011;36113;50.742;6.432;2023-12-20T12:02:24;12.85;;;4.95;;
50225;SDS011;36113;50.742;6.432;2023-12-20T12:04:49;13.68;;;4.82;;
50225;SDS011;36113;50.742;6.432;2023-12-20T12:07:18;8.38;;;4.47;;
50225;SDS011;36113;50.742;6.432;2023-12-20T12:09:43;11.75;;;4.38;;
50225;SDS011;36113;50.742;6.432;2023-12-20T12:12:09;10.55;;;4.15;;
50225;SDS011;36113;50.742;6.432;2023-12-20T12:14:37;9.23;;;4.22;;
50225;SDS011;36113;50.742;6.432;2023-12-20T12:17:03;11.20;;;4.73;;
50225;SDS011;36113;50.742;6.432;2023-12-20T12:19:29;10.90;;;4.40;;
50225;SDS011;36113;50.742;6.432;2023-12-20T12:22:06;12.60;;;5.20;;
50225;SDS011;36113;50.742;6.432;2023-12-20T12:24:33;13.82;;;3.97;;
50225;SDS011;36113;50.742;6.432;2023-12-20T12:26:58;16.02;;;4.82;;
50225;SDS011;36113;50.742;6.432;2023-12-20T12:29:24;10.95;;;4.55;;
50225;SDS011;36113;50.742;6.432;2023-12-20T12:31:49;14.25;;;4.60;;
50225;SDS011;36113;50.742;6.432;2023-12-20T12:34:15;8.43;;;4.82;;
50225;SDS011;36113;50.742;6.432;2023-12-20T12:39:08;11.38;;;4.97;;
50225;SDS011;36113;50.742;6.432;2023-12-20T12:41:33;12.13;;;5.00;;
50225;SDS011;36113;50.742;6.432;2023-12-20T12:43:58;13.77;;;5.82;;
50225;SDS011;36113;50.742;6.432;2023-12-20T12:46:24;23.98;;;5.45;;
50225;SDS011;36113;50.742;6.432;2023-12-20T12:48:49;17.80;;;5.30;;
50225;SDS011;36113;50.742;6.432;2023-12-20T12:51:15;17.13;;;5.80;;
50225;SDS011;36113;50.742;6.432;2023-12-20T12:53:41;9.23;;;5.10;;
50225;SDS011;36113;50.742;6.432;2023-12-20T12:56:06;7.85;;;4.82;;
50225;SDS011;36113;50.742;6.432;2023-12-20T12:58:32;15.80;;;4.65;;
50225;SDS011;36113;50.742;6.432;2023-12-20T13:00:58;17.10;;;4.75;;
50225;SDS011;36113;50.742;6.432;2023-12-20T13:03:23;9.35;;;4.53;;
50225;SDS011;36113;50.742;6.432;2023-12-20T13:05:49;12.32;;;4.43;;
50225;SDS011;36113;50.742;6.432;2023-12-20T13:08:15;14.63;;;4.47;;
50225;SDS011;36113;50.742;6.432;2023-12-20T13:10:40;8.95;;;4.18;;
50225;SDS011;36113;50.742;6.432;2023-12-20T13:13:05;16.98;;;4.47;;
50225;SDS011;36113;50.742;6.432;2023-12-20T13:15:31;14.55;;;4.93;;
50225;SDS011;36113;50.742;6.432;2023-12-20T13:17:56;9.75;;;4.32;;
50225;SDS011;36113;50.742;6.432;2023-12-20T13:20:21;12.43;;;4.88;;
50225;SDS011;36113;50.742;6.432;2023-12-20T13:22:47;11.30;;;4.32;;
50225;SDS011;36113;50.742;6.432;2023-12-20T13:25:13;7.43;;;3.80;;
50225;SDS011;36113;50.742;6.432;2023-12-20T13:27:38;12.27;;;4.32;;
50225;SDS011;36113;50.742;6.432;2023-12-20T13:30:04;6.88;;;3.53;;
50225;SDS011;36113;50.742;6.432;2023-12-20T13:32:30;16.70;;;4.40;;
50225;SDS011;36113;50.742;6.432;2023-12-20T13:34:55;10.85;;;4.35;;
50225;SDS011;36113;50.742;6.432;2023-12-20T13:37:21;10.43;;;3.78;;
50225;SDS011;36113;50.742;6.432;2023-12-20T13:39:47;14.63;;;7.10;;
50225;SDS011;36113;50.742;6.432;2023-12-20T13:42:12;13.27;;;5.47;;
50225;SDS011;36113;50.742;6.432;2023-12-20T13:44:37;8.65;;;4.18;;
50225;SDS011;36113;50.742;6.432;2023-12-20T13:47:02;8.00;;;3.97;;
50225;SDS011;36113;50.742;6.432;2023-12-20T13:49:29;7.72;;;3.92;;
50225;SDS011;36113;50.742;6.432;2023-12-20T13:51:54;9.40;;;3.83;;
50225;SDS011;36113;50.742;6.432;2023-12-20T13:54:20;7.80;;;3.60;;
50225;SDS011;36113;50.742;6.432;2023-12-20T13:56:47;8.65;;;3.70;;
50225;SDS011;36113;50.742;6.432;2023-12-20T13:59:12;6.93;;;3.45;;
50225;SDS011;36113;50.742;6.432;2023-12-20T14:01:38;7.23;;;3.97;;
50225;SDS011;36113;50.742;6.432;2023-12-20T14:04:04;11.38;;;3.55;;
50225;SDS011;36113;50.742;6.432;2023-12-20T14:06:29;8.05;;;3.90;;
50225;SDS011;36113;50.742;6.432;2023-12-20T14:08:55;11.82;;;4.65;;
50225;SDS011;36113;50.742;6.432;2023-12-20T14:11:20;10.98;;;4.10;;
50225;SDS011;36113;50.742;6.432;2023-12-20T14:13:46;10.43;;;4.32;;
50225;SDS011;36113;50.742;6.432;2023-12-20T14:16:11;9.07;;;4.25;;
50225;SDS011;36113;50.742;6.432;2023-12-20T14:18:37;10.80;;;5.53;;
50225;SDS011;36113;50.742;6.432;2023-12-20T14:21:03;8.70;;;4.47;;
50225;SDS011;36113;50.742;6.432;2023-12-20T14:23:30;11.80;;;5.25;;
50225;SDS011;36113;50.742;6.432;2023-12-20T14:25:56;10.90;;;7.20;;
50225;SDS011;36113;50.742;6.432;2023-12-20T14:28:23;11.60;;;7.15;;
50225;SDS011;36113;50.742;6.432;2023-12-20T14:30:48;15.20;;;8.95;;
50225;SDS011;36113;50.742;6.432;2023-12-20T14:33:14;16.77;;;8.70;;
50225;SDS011;36113;50.742;6.432;2023-12-20T14:35:39;15.57;;;6.20;;